Wellington, Ohio
Current Conditions -  °F | °C
As of 3:53 AM on Wednesday 28 Jan 2015 (Local Time) from KLPR Reporting Station
Clear Clear  
Wind Chill: -6°   Ceiling: Unl
Heat Index:   Visibility: 8mi
Dew Point:   Wind: 5mph
Humidity: 95%   Direction: 270°W
Pressure: 30.25"   Gusts: NA
Location:  41.17°N, 82.22°W
Report Text: KLPR 280853Z AUTO 27004KT 8SM CLR M16/M17 A3025 RMK AO2 SLP261 I1000 I3000 T11611167 51017 TSNO
Loading
Personal Weather Stations






























Interactive Weather Map New forecast layout! Learn more

10-Day Weather Forecast

Advertisements
Track Severe Weather on mobile